Time;durP1;ratioP1;P1;durP2;ratioP2;P2;SDS_P1;SDS_P2;PMS_P1;PMS_P2;Temp;Humidity;BMP_temperature;BMP_pressure;BME280_temperature;BME280_humidity;BME280_pressure;Samples;Min_cycle;Max_cycle;Signal;HPM_P1;HPM_P2
2023/12/28 00:01:48;;;;;;;3.20;2.22;;;;;;;16.24;51.51;100825.81;4966317;28;20069;-43
2023/12/28 00:04:15;;;;;;;4.47;2.25;;;;;;;16.24;51.93;100834.72;4966629;28;20402;-42
2023/12/28 00:06:42;;;;;;;3.90;2.42;;;;;;;16.23;52.17;100849.03;4967672;28;20243;-43
2023/12/28 00:09:09;;;;;;;4.45;2.42;;;;;;;16.27;52.13;100841.59;4968901;28;20050;-43
2023/12/28 00:11:38;;;;;;;4.60;2.30;;;;;;;16.35;51.66;100843.56;4969814;28;20054;-43
2023/12/28 00:14:05;;;;;;;5.68;2.70;;;;;;;16.42;51.08;100844.69;4966198;28;20112;-43
2023/12/28 00:16:37;;;;;;;5.90;3.05;;;;;;;16.47;51.94;100848.59;4967515;28;20130;-43
2023/12/28 00:19:04;;;;;;;3.30;2.17;;;;;;;16.53;51.30;100852.56;4967550;28;20134;-43
2023/12/28 00:21:31;;;;;;;4.43;2.40;;;;;;;16.57;51.30;100853.09;4970383;28;20347;-45
2023/12/28 00:23:58;;;;;;;4.22;2.72;;;;;;;16.59;51.32;100857.31;4967658;28;20054;-43
2023/12/28 00:26:24;;;;;;;3.75;2.30;;;;;;;16.63;51.40;100868.56;4966445;28;20059;-43
2023/12/28 00:28:51;;;;;;;3.95;2.35;;;;;;;16.67;51.38;100853.91;4966152;28;20098;-43
2023/12/28 00:31:18;;;;;;;4.35;2.65;;;;;;;16.68;50.82;100858.28;4961769;28;20058;-43
2023/12/28 00:33:44;;;;;;;4.05;2.63;;;;;;;16.69;50.93;100860.81;4966503;28;20462;-43
2023/12/28 00:36:11;;;;;;;3.13;2.00;;;;;;;16.71;51.22;100858.00;4964489;28;20058;-43
2023/12/28 00:38:38;;;;;;;3.25;2.25;;;;;;;16.73;50.78;100864.09;4968123;28;20066;-43
2023/12/28 00:41:04;;;;;;;3.70;2.30;;;;;;;16.75;50.63;100860.25;4962109;28;20078;-43
2023/12/28 00:43:31;;;;;;;2.92;2.42;;;;;;;16.80;51.03;100862.50;4968210;28;20070;-42
2023/12/28 00:45:58;;;;;;;3.55;2.33;;;;;;;16.81;51.01;100866.88;4965211;28;20430;-43
2023/12/28 00:48:24;;;;;;;4.45;2.50;;;;;;;16.83;51.23;100864.91;4967834;28;20537;-43
2023/12/28 00:50:52;;;;;;;4.57;2.47;;;;;;;16.85;51.31;100870.13;4968394;28;20051;-43
2023/12/28 00:53:19;;;;;;;4.97;2.50;;;;;;;16.86;50.52;100867.28;4964680;28;20043;-43
2023/12/28 00:55:46;;;;;;;5.13;2.35;;;;;;;16.87;51.09;100862.78;4969013;28;20054;-43
2023/12/28 00:58:13;;;;;;;4.28;2.17;;;;;;;16.88;50.41;100864.44;4965880;28;20117;-43
2023/12/28 01:00:39;;;;;;;3.17;2.17;;;;;;;16.90;50.71;100865.16;4967080;28;20079;-43
2023/12/28 01:03:06;;;;;;;3.75;2.30;;;;;;;16.92;50.84;100852.47;4965380;28;20460;-43
2023/12/28 01:05:32;;;;;;;2.85;1.80;;;;;;;16.94;50.77;100863.88;4968857;28;20054;-43
2023/12/28 01:07:59;;;;;;;3.75;1.98;;;;;;;16.95;50.83;100865.56;4968796;28;20051;-43
2023/12/28 01:10:26;;;;;;;4.72;2.20;;;;;;;16.98;50.69;100854.56;4967503;28;20051;-43
2023/12/28 01:12:53;;;;;;;3.45;2.00;;;;;;;17.02;50.84;100855.97;4965925;28;20399;-43
2023/12/28 01:15:20;;;;;;;4.28;2.17;;;;;;;17.06;50.61;100860.03;4963036;28;20047;-43
2023/12/28 01:17:47;;;;;;;2.88;1.90;;;;;;;17.10;50.36;100863.25;4961069;28;20054;-43
2023/12/28 01:20:14;;;;;;;4.07;2.20;;;;;;;17.15;50.16;100864.50;4962831;28;20047;-43
2023/12/28 01:22:40;;;;;;;5.05;2.15;;;;;;;17.20;49.98;100856.84;4964067;28;20042;-43
2023/12/28 01:25:07;;;;;;;3.15;1.67;;;;;;;17.24;50.42;100862.75;4966738;28;20113;-42
2023/12/28 01:27:34;;;;;;;2.90;1.90;;;;;;;17.27;50.46;100857.13;4963773;28;20094;-43
2023/12/28 01:30:00;;;;;;;4.10;1.77;;;;;;;17.30;49.94;100856.00;4966171;28;20055;-42
2023/12/28 01:32:27;;;;;;;4.90;2.22;;;;;;;17.31;50.22;100857.66;4965229;28;20058;-42
2023/12/28 01:34:54;;;;;;;5.32;2.00;;;;;;;17.31;49.79;100858.50;4966190;28;20058;-43
2023/12/28 01:37:21;;;;;;;3.33;1.90;;;;;;;17.32;50.49;100854.84;4962575;28;20421;-43
2023/12/28 01:39:48;;;;;;;4.25;2.00;;;;;;;17.32;50.29;100868.22;4963310;28;20055;-42
2023/12/28 01:42:15;;;;;;;5.07;2.10;;;;;;;17.32;50.01;100870.91;4966659;28;20050;-43
2023/12/28 01:44:41;;;;;;;5.43;2.10;;;;;;;17.33;50.30;100867.25;4965318;28;20078;-42
2023/12/28 01:47:08;;;;;;;3.00;1.85;;;;;;;17.33;50.34;100877.97;4962888;28;20054;-43
2023/12/28 01:49:36;;;;;;;2.85;2.00;;;;;;;17.32;50.04;100870.91;4964742;28;20056;-43
2023/12/28 01:52:04;;;;;;;3.67;2.10;;;;;;;17.31;50.08;100869.22;4966928;28;20075;-42
2023/12/28 01:54:31;;;;;;;2.85;1.67;;;;;;;17.30;49.97;100867.53;4962388;28;20046;-43
2023/12/28 01:57:01;;;;;;;4.97;1.83;;;;;;;17.29;50.40;100871.22;4964962;28;20078;-43
2023/12/28 01:59:27;;;;;;;3.85;1.70;;;;;;;17.27;49.83;100876.72;4965018;28;20051;-42
2023/12/28 02:01:55;;;;;;;2.80;1.88;;;;;;;17.27;50.17;100865.16;4962206;28;20047;-42
2023/12/28 02:04:27;;;;;;;2.30;1.75;;;;;;;17.26;49.95;100864.31;4966873;28;20047;-43
2023/12/28 02:06:59;;;;;;;5.43;2.10;;;;;;;17.25;50.06;100859.97;4966112;28;20050;-42
2023/12/28 02:09:26;;;;;;;4.35;1.85;;;;;;;17.23;50.33;100878.00;4965170;28;20050;-42
2023/12/28 02:11:54;;;;;;;6.60;2.10;;;;;;;17.22;50.35;100873.63;4965056;28;20125;-43
2023/12/28 02:14:22;;;;;;;4.05;2.30;;;;;;;17.20;50.29;100877.44;4963744;28;20047;-42
2023/12/28 02:17:21;;;;;;;4.10;1.90;;;;;;;17.17;50.28;100877.75;4967256;28;20104;-42
2023/12/28 02:19:54;;;;;;;3.45;2.05;;;;;;;17.17;50.31;100878.59;4966333;28;20103;-42
2023/12/28 02:22:26;;;;;;;2.90;1.95;;;;;;;17.16;49.90;100871.53;4967356;28;20434;-43
2023/12/28 02:25:01;;;;;;;4.32;1.90;;;;;;;17.13;50.46;100874.53;4963407;28;20043;-41
2023/12/28 02:27:28;;;;;;;3.30;1.40;;;;;;;17.12;50.83;100862.09;4962132;28;20083;-42
2023/12/28 02:29:55;;;;;;;5.05;1.90;;;;;;;17.11;50.89;100849.72;4963562;28;20050;-42
2023/12/28 02:32:28;;;;;;;4.70;1.98;;;;;;;17.10;50.41;100860.59;4966906;28;20513;-43
2023/12/28 02:35:01;;;;;;;11.02;2.67;;;;;;;17.08;50.17;100851.84;4963371;28;20047;-42
2023/12/28 02:37:30;;;;;;;3.95;1.90;;;;;;;17.08;50.74;100852.69;4964778;28;20051;-42
2023/12/28 02:39:56;;;;;;;4.53;1.90;;;;;;;17.07;50.24;100851.00;4965307;28;20319;-43
2023/12/28 02:42:23;;;;;;;2.47;1.70;;;;;;;17.08;50.78;100843.81;4969053;28;20051;-42
2023/12/28 02:44:50;;;;;;;3.33;1.65;;;;;;;17.07;50.59;100839.44;4965383;28;20047;-42
2023/12/28 02:47:16;;;;;;;4.65;2.15;;;;;;;17.07;50.85;100832.25;4964051;28;20058;-42
2023/12/28 02:49:43;;;;;;;2.83;1.85;;;;;;;17.08;50.47;100841.13;4963610;28;20051;-42
2023/12/28 02:52:10;;;;;;;2.85;1.50;;;;;;;17.08;50.62;100847.31;4964648;28;20107;-42
2023/12/28 02:54:36;;;;;;;3.22;1.88;;;;;;;17.08;50.63;100847.31;4965463;28;20051;-42
2023/12/28 02:57:03;;;;;;;3.40;1.65;;;;;;;17.08;50.20;100841.13;4962763;28;20423;-42
2023/12/28 02:59:30;;;;;;;3.10;1.55;;;;;;;17.08;50.17;100852.69;4965453;28;20093;-42
2023/12/28 03:01:56;;;;;;;3.65;1.40;;;;;;;17.10;50.34;100850.72;4962974;28;20099;-42
2023/12/28 03:04:23;;;;;;;3.60;1.70;;;;;;;17.14;49.99;100854.78;4964676;28;20078;-41
2023/12/28 03:06:50;;;;;;;4.00;1.98;;;;;;;17.18;50.74;100864.22;4965604;28;20051;-42
2023/12/28 03:09:16;;;;;;;3.22;1.65;;;;;;;17.22;50.07;100860.25;4969938;28;20142;-42
2023/12/28 03:11:43;;;;;;;2.65;1.60;;;;;;;17.25;50.15;100859.97;4971767;28;20085;-42
2023/12/28 03:14:09;;;;;;;2.60;1.55;;;;;;;17.28;50.08;100850.75;4967831;28;20132;-42
2023/12/28 03:16:36;;;;;;;3.90;1.83;;;;;;;17.31;49.78;100855.00;4969108;28;20117;-42
2023/12/28 03:19:02;;;;;;;4.50;1.70;;;;;;;17.35;50.28;100849.19;4967202;28;20054;-43
2023/12/28 03:21:29;;;;;;;3.88;1.77;;;;;;;17.39;50.42;100863.13;4967412;28;20050;-42
2023/12/28 03:23:56;;;;;;;3.03;1.48;;;;;;;17.39;50.11;100845.22;4965488;28;20154;-41
2023/12/28 03:26:23;;;;;;;4.45;1.73;;;;;;;17.42;49.95;100852.97;4967679;28;20043;-42
2023/12/28 03:28:50;;;;;;;4.10;1.50;;;;;;;17.44;49.92;100855.47;4966809;28;20047;-43
2023/12/28 03:31:16;;;;;;;2.72;1.60;;;;;;;17.45;49.87;100860.69;4965848;28;20562;-42
2023/12/28 03:33:43;;;;;;;4.13;1.38;;;;;;;17.45;49.79;100843.78;4966677;28;20098;-42
2023/12/28 03:36:20;;;;;;;3.35;1.55;;;;;;;17.46;49.78;100845.47;4965467;28;20391;-42
2023/12/28 03:38:46;;;;;;;3.83;1.60;;;;;;;17.46;49.96;100840.09;4969666;28;20132;-42
2023/12/28 03:41:19;;;;;;;2.97;1.65;;;;;;;17.44;49.94;100832.19;4968596;28;20078;-42
2023/12/28 03:43:47;;;;;;;4.97;1.85;;;;;;;17.44;49.48;100839.41;4965233;28;20374;-42
2023/12/28 03:46:14;;;;;;;2.70;1.20;;;;;;;17.42;49.82;100828.84;4964196;28;20055;-42
2023/12/28 03:48:40;;;;;;;4.10;1.63;;;;;;;17.41;49.60;100834.38;4966839;28;20457;-42
2023/12/28 03:51:07;;;;;;;3.33;1.50;;;;;;;17.40;49.80;100835.34;4967462;28;20082;-42
2023/12/28 03:53:34;;;;;;;4.00;1.60;;;;;;;17.38;49.74;100834.66;4968002;28;20051;-42
2023/12/28 03:56:01;;;;;;;2.85;1.40;;;;;;;17.36;49.96;100844.66;4963871;28;20470;-42
2023/12/28 03:58:27;;;;;;;3.88;1.40;;;;;;;17.35;50.34;100838.47;4968092;28;20446;-42
2023/12/28 04:00:54;;;;;;;3.47;1.48;;;;;;;17.33;50.45;100824.41;4964558;28;20494;-41
2023/12/28 04:03:21;;;;;;;4.25;1.48;;;;;;;17.31;50.29;100837.06;4959984;28;20066;-42
2023/12/28 04:05:47;;;;;;;3.38;1.67;;;;;;;17.30;50.26;100827.38;4967267;28;20134;-42
2023/12/28 04:08:14;;;;;;;5.47;1.80;;;;;;;17.29;50.31;100839.06;4967218;28;20689;-42
2023/12/28 04:10:41;;;;;;;3.85;1.52;;;;;;;17.28;49.84;100821.28;4965458;28;20079;-42
2023/12/28 04:13:07;;;;;;;2.05;1.20;;;;;;;17.31;50.32;100830.88;4969072;28;20388;-42
2023/12/28 04:15:34;;;;;;;3.95;1.67;;;;;;;17.35;49.97;100841.16;4966170;28;20066;-42
2023/12/28 04:18:01;;;;;;;3.92;1.65;;;;;;;17.39;49.87;100825.63;4968505;28;20058;-42
2023/12/28 04:20:28;;;;;;;5.18;1.63;;;;;;;17.44;49.69;100836.72;4969647;28;20050;-42
2023/12/28 04:22:54;;;;;;;3.60;1.60;;;;;;;17.47;49.99;100810.47;4967196;28;20098;-42
2023/12/28 04:25:21;;;;;;;2.75;1.70;;;;;;;17.50;49.67;100825.41;4970313;28;20126;-42
2023/12/28 04:27:49;;;;;;;4.22;1.70;;;;;;;17.54;49.62;100850.09;4965035;28;20055;-42
2023/12/28 04:30:16;;;;;;;2.92;1.50;;;;;;;17.55;49.66;100836.53;4970769;28;20046;-42
2023/12/28 04:32:42;;;;;;;3.78;1.65;;;;;;;17.56;49.77;100840.03;4964483;28;20043;-42
2023/12/28 04:35:09;;;;;;;3.35;1.45;;;;;;;17.54;49.49;100842.88;4965739;28;20313;-42
2023/12/28 04:37:36;;;;;;;6.45;2.25;;;;;;;17.51;49.66;100830.63;4965151;28;20431;-42
2023/12/28 04:40:03;;;;;;;4.60;1.50;;;;;;;17.49;49.80;100829.94;4967789;28;20055;-43
2023/12/28 04:42:30;;;;;;;5.05;2.15;;;;;;;17.46;49.77;100827.56;4966101;28;20055;-43
2023/12/28 04:44:57;;;;;;;3.58;1.90;;;;;;;17.44;49.91;100831.38;4965477;28;20066;-42
2023/12/28 04:47:23;;;;;;;7.68;2.38;;;;;;;17.41;50.00;100819.13;4967526;28;20078;-42
2023/12/28 04:49:50;;;;;;;6.22;1.90;;;;;;;17.39;49.98;100817.56;4962720;28;20051;-42
2023/12/28 04:52:17;;;;;;;3.28;1.50;;;;;;;17.37;50.02;100832.97;4966953;28;20061;-42
2023/12/28 04:54:44;;;;;;;3.90;1.70;;;;;;;17.35;50.15;100848.34;4961972;28;20447;-42
2023/12/28 04:57:10;;;;;;;6.00;1.88;;;;;;;17.32;49.97;100830.72;4965455;28;20772;-42
2023/12/28 04:59:41;;;;;;;4.30;1.70;;;;;;;17.30;50.02;100839.91;4964403;28;20146;-42
2023/12/28 05:02:07;;;;;;;4.00;1.58;;;;;;;17.28;49.79;100842.72;4964016;28;20050;-43
2023/12/28 05:04:38;;;;;;;7.03;2.05;;;;;;;17.26;50.24;100856.28;4965860;28;20049;-43
2023/12/28 05:07:05;;;;;;;3.60;1.33;;;;;;;17.25;50.33;100848.41;4964780;28;20646;-43
2023/12/28 05:09:32;;;;;;;3.97;1.88;;;;;;;17.24;49.78;100844.00;4968542;28;20055;-43
2023/12/28 05:11:58;;;;;;;8.20;1.98;;;;;;;17.22;49.77;100860.25;4963864;28;20110;-43
2023/12/28 05:14:25;;;;;;;4.88;1.83;;;;;;;17.21;49.97;100842.50;4963797;28;20599;-42
2023/12/28 05:16:52;;;;;;;5.45;1.60;;;;;;;17.20;50.21;100856.00;4963554;28;20050;-43
2023/12/28 05:19:18;;;;;;;4.40;1.60;;;;;;;17.19;50.16;100857.84;4964077;28;20047;-43
2023/12/28 05:21:46;;;;;;;5.55;1.70;;;;;;;17.18;50.64;100866.88;4961631;28;20147;-43
2023/12/28 05:24:13;;;;;;;4.07;1.98;;;;;;;17.17;50.45;100842.94;4964619;28;20054;-42
2023/12/28 05:26:40;;;;;;;4.03;1.35;;;;;;;17.16;50.41;100859.97;4963094;28;20043;-43
2023/12/28 05:29:06;;;;;;;6.07;1.83;;;;;;;17.15;50.15;100859.16;4961985;28;20059;-42
2023/12/28 05:31:33;;;;;;;4.82;1.40;;;;;;;17.13;50.25;100850.44;4961926;28;20149;-43
2023/12/28 05:34:00;;;;;;;5.03;1.77;;;;;;;17.13;50.65;100860.31;4964332;28;20054;-43
2023/12/28 05:36:26;;;;;;;5.43;1.88;;;;;;;17.12;50.59;100847.88;4964545;28;20047;-43
2023/12/28 05:38:53;;;;;;;6.47;1.98;;;;;;;17.08;50.40;100844.66;4964366;28;20431;-43
2023/12/28 05:41:20;;;;;;;4.38;1.40;;;;;;;17.07;50.24;100867.06;4963564;28;20089;-45
2023/12/28 05:43:47;;;;;;;6.03;1.75;;;;;;;17.06;50.22;100843.97;4964835;28;20050;-43
2023/12/28 05:46:13;;;;;;;3.40;1.63;;;;;;;17.03;49.99;100844.25;4966430;28;20054;-43
2023/12/28 05:48:40;;;;;;;6.45;1.90;;;;;;;17.00;50.87;100844.53;4965561;28;20054;-43
2023/12/28 05:51:07;;;;;;;7.35;1.80;;;;;;;16.96;50.96;100853.84;4962680;28;20094;-43
2023/12/28 05:53:34;;;;;;;8.35;2.65;;;;;;;16.93;50.69;100862.19;4964346;28;20046;-42
2023/12/28 05:56:03;;;;;;;7.65;2.05;;;;;;;16.90;50.40;100855.28;4959007;28;20142;-43
2023/12/28 05:58:29;;;;;;;6.93;2.35;;;;;;;16.87;51.10;100863.63;4963193;28;20061;-43
2023/12/28 06:00:56;;;;;;;8.40;2.22;;;;;;;16.86;50.36;100866.44;4964410;28;20156;-43
2023/12/28 06:03:27;;;;;;;5.00;1.80;;;;;;;16.85;51.23;100859.41;4964863;28;20058;-43
2023/12/28 06:05:55;;;;;;;7.40;2.15;;;;;;;16.89;50.78;100860.81;4966025;28;20051;-43
2023/12/28 06:08:22;;;;;;;6.13;2.22;;;;;;;16.93;50.82;100876.44;4967011;28;20050;-42
2023/12/28 06:10:53;;;;;;;5.15;2.10;;;;;;;16.97;50.32;100866.28;4966084;28;20436;-43
2023/12/28 06:13:19;;;;;;;8.13;1.65;;;;;;;17.01;50.26;100870.34;4966964;28;20050;-43
2023/12/28 06:15:46;;;;;;;5.95;1.85;;;;;;;17.06;51.03;100877.94;4964337;28;20083;-42
2023/12/28 06:18:13;;;;;;;5.50;1.92;;;;;;;17.09;50.17;100883.00;4968404;28;20141;-42
2023/12/28 06:20:39;;;;;;;5.70;1.88;;;;;;;17.14;50.42;100878.06;4960916;28;20067;-43
2023/12/28 06:23:07;;;;;;;7.30;2.03;;;;;;;17.20;50.85;100888.16;4962968;28;20094;-43
2023/12/28 06:25:34;;;;;;;6.60;2.05;;;;;;;17.24;50.06;100885.03;4964977;28;20078;-42
2023/12/28 06:28:00;;;;;;;7.50;2.00;;;;;;;17.30;50.07;100894.34;4968507;28;20054;-41
2023/12/28 06:30:27;;;;;;;6.10;2.10;;;;;;;17.37;50.36;100892.75;4962258;28;20055;-42
2023/12/28 06:32:54;;;;;;;4.80;1.77;;;;;;;17.41;50.30;100902.19;4965674;28;20367;-42
2023/12/28 06:35:21;;;;;;;6.78;1.90;;;;;;;17.44;50.08;100911.75;4964007;28;20047;-43
2023/12/28 06:37:48;;;;;;;6.95;2.13;;;;;;;17.46;50.26;100893.69;4965056;28;20054;-43
2023/12/28 06:40:14;;;;;;;6.13;2.55;;;;;;;17.46;49.64;100886.50;4972157;28;20090;-43
2023/12/28 06:42:43;;;;;;;5.88;1.75;;;;;;;17.46;49.91;100888.34;4963839;28;20074;-43
2023/12/28 06:45:10;;;;;;;6.60;2.13;;;;;;;17.44;49.72;100874.22;4971662;28;20351;-43
2023/12/28 06:47:37;;;;;;;7.60;2.05;;;;;;;17.42;50.01;100887.78;4965693;28;20047;-42
2023/12/28 06:50:04;;;;;;;6.43;2.25;;;;;;;17.41;49.81;100893.31;4967812;28;20059;-43
2023/12/28 06:52:31;;;;;;;8.35;1.88;;;;;;;17.40;49.92;100884.41;4969933;28;20130;-43
2023/12/28 06:54:58;;;;;;;9.00;1.88;;;;;;;17.38;50.10;100885.56;4969350;28;20320;-42
2023/12/28 06:57:24;;;;;;;8.43;2.10;;;;;;;17.35;49.88;100897.41;4968699;28;20051;-42
2023/12/28 06:59:51;;;;;;;8.38;2.10;;;;;;;17.33;50.16;100888.69;4968402;28;20085;-43
2023/12/28 07:02:18;;;;;;;7.57;2.42;;;;;;;17.30;50.32;100902.38;4968932;28;20050;-43
2023/12/28 07:04:44;;;;;;;7.93;2.00;;;;;;;17.29;49.58;100903.38;4967051;28;20039;-42
2023/12/28 07:07:11;;;;;;;6.70;1.92;;;;;;;17.27;50.22;100900.81;4969393;28;20086;-42
2023/12/28 07:09:38;;;;;;;5.80;1.67;;;;;;;17.26;50.29;100928.59;4964362;28;20051;-42
2023/12/28 07:12:05;;;;;;;8.63;2.22;;;;;;;17.24;50.18;100911.81;4963716;28;20051;-42
2023/12/28 07:14:31;;;;;;;6.10;1.65;;;;;;;17.22;50.09;100910.31;4967813;28;20105;-43
2023/12/28 07:16:58;;;;;;;6.57;2.40;;;;;;;17.26;49.84;100927.75;4968294;28;20098;-43
2023/12/28 07:19:24;;;;;;;7.72;2.40;;;;;;;17.34;50.43;100922.50;4967821;28;20047;-43
2023/12/28 07:21:51;;;;;;;5.70;2.22;;;;;;;17.41;50.00;100923.63;4966884;28;20093;-43
2023/12/28 07:24:18;;;;;;;6.85;2.30;;;;;;;17.49;49.88;100926.41;4965100;28;20114;-43
2023/12/28 07:26:44;;;;;;;6.03;1.85;;;;;;;17.58;49.78;100924.66;4965103;28;20054;-43
2023/12/28 07:29:11;;;;;;;7.88;2.40;;;;;;;17.66;49.45;100935.50;4968055;28;20125;-43
2023/12/28 07:31:37;;;;;;;6.53;1.80;;;;;;;17.76;49.44;100948.84;4968454;28;20055;-42
2023/12/28 07:34:05;;;;;;;6.22;1.90;;;;;;;17.85;49.61;100952.47;4963495;28;20162;-41
2023/12/28 07:36:32;;;;;;;4.43;1.55;;;;;;;17.93;49.16;100939.16;4963616;28;20091;-42
2023/12/28 07:38:59;;;;;;;6.00;2.00;;;;;;;18.01;48.86;100952.69;4968131;28;20138;-43
2023/12/28 07:41:25;;;;;;;5.65;2.10;;;;;;;18.08;48.85;100960.97;4964517;28;20111;-43
2023/12/28 07:43:52;;;;;;;5.18;1.95;;;;;;;18.14;48.84;100963.88;4967114;28;20462;-42
2023/12/28 07:46:18;;;;;;;5.63;1.88;;;;;;;18.21;48.78;100974.84;4966507;28;20370;-42
2023/12/28 07:48:45;;;;;;;6.10;1.90;;;;;;;18.28;48.80;100962.50;4963989;28;20083;-43
2023/12/28 07:51:13;;;;;;;6.88;1.83;;;;;;;18.33;48.22;100975.47;4966269;28;20451;-42
2023/12/28 07:53:40;;;;;;;5.43;1.98;;;;;;;18.39;48.36;100974.88;4965672;28;20129;-42
2023/12/28 07:56:06;;;;;;;5.50;1.92;;;;;;;18.44;48.47;100981.44;4966000;28;20047;-42
2023/12/28 07:58:33;;;;;;;7.90;2.13;;;;;;;18.48;48.08;100980.16;4967042;28;20439;-43
2023/12/28 08:01:00;;;;;;;6.75;2.35;;;;;;;18.53;48.32;100971.63;4969354;28;20067;-43
2023/12/28 08:03:27;;;;;;;7.10;2.50;;;;;;;18.57;48.23;100964.97;4969043;28;20526;-43
2023/12/28 08:05:54;;;;;;;7.47;2.05;;;;;;;18.62;48.37;100967.22;4966201;28;20074;-43
2023/12/28 08:08:20;;;;;;;7.20;2.40;;;;;;;18.65;48.12;100972.25;4960818;28;20058;-43
2023/12/28 08:10:47;;;;;;;8.00;2.00;;;;;;;18.66;48.17;100977.47;4966320;28;20055;-43
2023/12/28 08:13:13;;;;;;;6.85;2.25;;;;;;;18.67;48.14;100975.63;4967247;28;20125;-43
2023/12/28 08:15:40;;;;;;;6.28;2.22;;;;;;;18.66;48.17;100979.31;4968187;28;20051;-43
2023/12/28 08:18:07;;;;;;;6.65;2.10;;;;;;;18.63;48.15;100993.03;4966542;28;20145;-43
2023/12/28 08:20:34;;;;;;;7.43;2.17;;;;;;;18.61;48.31;100989.66;4965037;28;20078;-43
2023/12/28 08:23:00;;;;;;;8.15;2.70;;;;;;;18.56;48.14;100990.13;4970391;28;20069;-42
2023/12/28 08:25:42;;;;;;;6.40;2.38;;;;;;;18.53;48.22;100994.94;4966901;28;20043;-42
2023/12/28 08:28:09;;;;;;;7.78;2.60;;;;;;;18.48;47.89;100992.72;4968017;28;20084;-42
2023/12/28 08:30:36;;;;;;;10.50;2.90;;;;;;;18.44;48.37;101002.09;4969853;28;20051;-42
2023/12/28 08:33:03;;;;;;;11.07;2.55;;;;;;;18.39;48.04;100991.81;4966724;28;20442;-42
2023/12/28 08:35:30;;;;;;;6.53;2.50;;;;;;;18.36;48.10;101004.69;4963706;28;20047;-42
2023/12/28 08:37:56;;;;;;;8.15;2.33;;;;;;;18.31;48.44;101007.00;4967709;28;20161;-42
2023/12/28 08:40:23;;;;;;;9.98;3.22;;;;;;;18.27;48.30;101000.22;4966714;28;20181;-42
2023/12/28 08:42:49;;;;;;;7.38;2.80;;;;;;;18.22;48.21;100998.84;4962658;28;20052;-42
2023/12/28 08:45:16;;;;;;;11.13;2.88;;;;;;;18.20;48.60;101002.66;4961967;28;20506;-42
2023/12/28 08:47:43;;;;;;;10.82;3.13;;;;;;;18.15;48.08;100997.75;4965950;28;20051;-43
2023/12/28 08:50:10;;;;;;;8.00;2.72;;;;;;;18.12;48.77;100992.69;4960290;28;20066;-42
2023/12/28 08:52:36;;;;;;;9.55;2.75;;;;;;;18.09;48.22;101002.88;4963177;28;20450;-43
2023/12/28 08:55:05;;;;;;;9.32;2.85;;;;;;;18.05;48.66;101004.16;4964586;28;20062;-42
2023/12/28 08:57:32;;;;;;;7.95;2.67;;;;;;;18.02;48.98;100997.28;4962719;28;20117;-42
2023/12/28 09:00:10;;;;;;;10.90;2.90;;;;;;;17.99;48.45;101001.09;4965575;28;20074;-42
2023/12/28 09:02:37;;;;;;;12.38;3.30;;;;;;;17.96;48.68;101003.22;4966738;28;20069;-43
2023/12/28 09:05:04;;;;;;;7.53;3.03;;;;;;;17.91;48.72;101005.53;4963895;28;20113;-42
2023/12/28 09:07:31;;;;;;;12.65;3.58;;;;;;;17.90;48.47;101011.88;4965042;28;20138;-42
2023/12/28 09:09:57;;;;;;;9.65;2.90;;;;;;;17.87;48.93;101020.22;4967122;28;20055;-42
2023/12/28 09:12:24;;;;;;;11.20;3.15;;;;;;;17.84;48.92;101015.16;4967964;28;20707;-43
2023/12/28 09:14:52;;;;;;;10.60;3.80;;;;;;;17.82;48.96;101015.31;4966609;28;20047;-43
2023/12/28 09:17:22;;;;;;;11.00;3.30;;;;;;;17.80;48.69;101019.13;4962199;28;20053;-43
2023/12/28 09:19:49;;;;;;;11.40;3.58;;;;;;;17.78;49.16;101024.63;4960824;28;20059;-42
2023/12/28 09:22:16;;;;;;;12.40;3.55;;;;;;;17.76;49.25;101042.69;4963873;28;20054;-42
2023/12/28 09:24:42;;;;;;;11.60;3.85;;;;;;;17.73;48.89;101018.84;4963807;28;20043;-43
2023/12/28 09:27:09;;;;;;;13.13;3.88;;;;;;;17.72;49.08;101038.59;4962967;28;20054;-42
2023/12/28 09:29:36;;;;;;;10.20;4.40;;;;;;;17.70;49.33;101033.38;4961284;28;20055;-42
2023/12/28 09:32:02;;;;;;;14.25;4.18;;;;;;;17.71;49.70;101048.47;4966635;28;20346;-41
2023/12/28 09:34:29;;;;;;;10.23;4.10;;;;;;;17.75;49.38;101031.13;4961643;28;20051;-42
2023/12/28 09:36:56;;;;;;;12.82;3.60;;;;;;;17.81;49.23;101042.25;4966536;28;20067;-42
2023/12/28 09:39:23;;;;;;;14.15;4.40;;;;;;;17.86;48.99;101031.94;4965830;28;20058;-42
2023/12/28 09:41:55;;;;;;;7.43;3.17;;;;;;;17.92;48.89;101048.25;4967567;28;20137;-42
2023/12/28 09:44:24;;;;;;;14.77;4.25;;;;;;;18.00;48.64;101047.53;4964668;28;20054;-42
2023/12/28 09:46:53;;;;;;;13.02;4.32;;;;;;;18.08;48.59;101044.09;4966721;28;20043;-42
2023/12/28 09:49:21;;;;;;;8.70;4.10;;;;;;;18.15;48.44;101043.38;4963797;28;20050;-42
2023/12/28 09:51:48;;;;;;;8.32;3.63;;;;;;;18.23;49.05;101047.97;4965341;28;20086;-42
2023/12/28 09:54:15;;;;;;;13.70;3.80;;;;;;;18.31;48.66;101050.75;4965584;28;20074;-43
2023/12/28 09:56:42;;;;;;;8.95;3.53;;;;;;;18.38;48.58;101048.34;4964388;28;20047;-42
2023/12/28 09:59:10;;;;;;;10.07;4.55;;;;;;;18.44;47.99;101050.38;4965139;28;20051;-43
2023/12/28 10:01:37;;;;;;;11.20;3.60;;;;;;;18.50;47.99;101066.75;4963768;28;20078;-43
2023/12/28 10:04:03;;;;;;;8.60;3.60;;;;;;;18.57;48.57;101063.44;4968955;28;20532;-43
2023/12/28 10:06:30;;;;;;;8.90;3.17;;;;;;;18.62;48.10;101067.38;4964293;28;20085;-42
2023/12/28 10:08:57;;;;;;;10.77;4.35;;;;;;;18.67;47.97;101065.06;4965818;28;20751;-43
2023/12/28 10:11:25;;;;;;;12.45;4.07;;;;;;;18.72;48.11;101076.22;4965086;28;20378;-42
2023/12/28 10:13:53;;;;;;;12.32;4.78;;;;;;;18.76;47.61;101071.41;4965897;28;20058;-43
2023/12/28 10:16:20;;;;;;;10.52;3.95;;;;;;;18.80;48.17;101071.94;4964369;28;20039;-42
2023/12/28 10:18:46;;;;;;;10.60;3.95;;;;;;;18.79;47.79;101071.09;4964482;28;20101;-42
2023/12/28 10:21:13;;;;;;;10.50;4.43;;;;;;;18.80;47.89;101066.56;4962312;28;20047;-42
2023/12/28 10:23:40;;;;;;;12.43;4.20;;;;;;;18.78;47.88;101072.09;4959449;28;20394;-42
2023/12/28 10:26:08;;;;;;;11.68;4.40;;;;;;;18.77;48.21;101066.88;4965180;28;20643;-42
2023/12/28 10:28:39;;;;;;;11.98;4.65;;;;;;;18.73;48.05;101067.19;4959346;28;20047;-42
2023/12/28 10:31:07;;;;;;;12.63;4.60;;;;;;;18.70;48.26;101074.72;4965242;28;20482;-42
2023/12/28 10:33:37;;;;;;;10.32;4.53;;;;;;;18.67;48.30;101064.22;4961891;28;20057;-44
2023/12/28 10:36:07;;;;;;;8.25;4.07;;;;;;;18.63;48.11;101061.00;4962230;28;20066;-44
2023/12/28 10:38:39;;;;;;;9.73;4.63;;;;;;;18.61;48.34;101057.63;4966655;28;20316;-42
2023/12/28 10:41:09;;;;;;;12.20;4.70;;;;;;;18.58;48.37;101057.94;4964348;28;20054;-43
2023/12/28 10:44:04;;;;;;;11.63;4.57;;;;;;;18.55;48.52;101068.13;4964298;28;20506;-43
2023/12/28 10:46:40;;;;;;;15.45;5.20;;;;;;;18.55;48.55;101073.50;4958780;28;20331;-42
2023/12/28 10:49:13;;;;;;;13.55;4.97;;;;;;;18.52;48.76;101069.28;4964647;28;20098;-42
2023/12/28 10:51:48;;;;;;;12.80;5.60;;;;;;;18.51;48.74;101062.22;4962519;28;20051;-42
2023/12/28 10:54:28;;;;;;;12.77;4.78;;;;;;;18.48;48.86;101068.72;4958729;28;20106;-43
2023/12/28 10:57:27;;;;;;;11.88;4.65;;;;;;;18.46;48.79;101051.09;4963102;28;20047;-42
2023/12/28 11:00:17;;;;;;;10.55;4.65;;;;;;;18.47;48.67;101066.19;4960789;28;20202;-44
2023/12/28 11:02:53;;;;;;;12.30;4.90;;;;;;;18.44;48.57;101063.81;4959663;28;20051;-43
2023/12/28 11:05:21;;;;;;;10.60;4.40;;;;;;;18.44;48.85;101063.81;4962463;28;20077;-42
2023/12/28 11:07:53;;;;;;;14.50;5.75;;;;;;;18.42;48.46;101063.13;4964233;28;20045;-43
2023/12/28 11:10:23;;;;;;;13.88;4.50;;;;;;;18.40;48.26;101060.59;4960223;28;20090;-44
2023/12/28 11:12:53;;;;;;;17.48;5.45;;;;;;;18.40;48.27;101062.44;4961331;28;20054;-44
2023/12/28 11:15:22;;;;;;;12.85;4.50;;;;;;;18.37;48.54;101060.91;4963595;28;20048;-43
2023/12/28 11:17:49;;;;;;;14.68;4.93;;;;;;;18.36;48.38;101059.19;4959011;28;20133;-43
2023/12/28 11:20:16;;;;;;;9.93;4.20;;;;;;;18.36;48.79;101042.25;4960771;28;20057;-42
2023/12/28 11:22:44;;;;;;;19.48;5.63;;;;;;;18.34;48.58;101041.56;4959715;28;20498;-42
2023/12/28 11:25:18;;;;;;;10.63;4.13;;;;;;;18.33;48.60;101050.59;4966251;28;20078;-43
2023/12/28 11:27:46;;;;;;;13.82;4.45;;;;;;;18.31;48.62;101053.44;4966883;28;20186;-43